createdAt,value
2017-12-01T00:00:40.162Z,89.33
2017-12-01T00:03:09.723Z,89.21
2017-12-01T00:05:37.552Z,89.21
2017-12-01T00:08:06.962Z,89.32
2017-12-01T00:10:35.528Z,89.34
2017-12-01T00:13:09.072Z,89.47
2017-12-01T00:15:39.090Z,89.43
2017-12-01T00:18:08.433Z,89.54
2017-12-01T00:20:36.973Z,89.70
2017-12-01T00:23:04.946Z,89.46
2017-12-01T00:25:33.116Z,89.50
2017-12-01T00:28:08.309Z,89.13
2017-12-01T00:30:37.932Z,88.89
2017-12-01T00:33:05.681Z,88.84
2017-12-01T00:35:34.074Z,88.80
2017-12-01T00:38:07.566Z,89.04
2017-12-01T00:40:36.150Z,89.06
2017-12-01T00:43:04.075Z,88.96
2017-12-01T00:45:33.718Z,88.74
2017-12-01T00:48:03.118Z,88.77
2017-12-01T00:50:33.531Z,88.74
2017-12-01T00:53:01.277Z,89.04
2017-12-01T00:55:30.999Z,88.71
2017-12-01T00:57:58.619Z,88.54
2017-12-01T01:00:26.265Z,88.84
2017-12-01T01:03:00.979Z,88.90
2017-12-01T01:05:28.696Z,88.69
2017-12-01T01:07:57.121Z,89.08
2017-12-01T01:10:25.702Z,89.09
2017-12-01T01:12:53.378Z,89.29
2017-12-01T01:15:23.044Z,89.23
2017-12-01T01:17:51.473Z,89.16
2017-12-01T01:20:21.956Z,89.06
2017-12-01T01:22:50.584Z,88.78
2017-12-01T01:25:19.962Z,88.73
2017-12-01T01:27:51.323Z,88.65
2017-12-01T01:30:19.102Z,88.46
2017-12-01T01:32:46.809Z,88.65
2017-12-01T01:35:17.231Z,88.71
2017-12-01T01:37:47.615Z,88.31
2017-12-01T01:40:17.056Z,88.37
2017-12-01T01:42:45.463Z,88.13
2017-12-01T01:45:13.110Z,87.95
2017-12-01T01:47:41.014Z,88.12
2017-12-01T01:50:10.396Z,88.10
2017-12-01T01:52:38.114Z,88.18
2017-12-01T01:55:07.632Z,88.45
2017-12-01T01:57:37.966Z,88.70
2017-12-01T02:00:05.695Z,88.54
2017-12-01T02:02:36.167Z,88.15
2017-12-01T02:05:03.812Z,88.08
2017-12-01T02:07:36.088Z,88.08
2017-12-01T02:10:05.547Z,88.02
2017-12-01T02:12:35.812Z,88.06
2017-12-01T02:15:04.226Z,88.44
2017-12-01T02:17:33.722Z,88.68
2017-12-01T02:20:07.600Z,88.57
2017-12-01T02:22:37.928Z,88.90
2017-12-01T02:25:06.398Z,88.69
2017-12-01T02:27:34.332Z,88.62
2017-12-01T02:30:02.777Z,88.75
2017-12-01T02:32:32.156Z,88.85
2017-12-01T02:35:00.666Z,88.93
2017-12-01T02:37:30.082Z,88.93
2017-12-01T02:40:05.725Z,88.91
2017-12-01T02:42:34.208Z,89.03
2017-12-01T02:45:03.648Z,89.02
2017-12-01T02:47:32.182Z,88.83
2017-12-01T02:49:59.894Z,89.00
2017-12-01T02:52:30.218Z,89.06
2017-12-01T02:54:58.019Z,89.11
2017-12-01T02:57:27.410Z,89.12
2017-12-01T02:59:56.043Z,89.16
2017-12-01T03:02:25.033Z,89.11
2017-12-01T03:04:57.314Z,88.92
2017-12-01T03:07:26.082Z,88.87
2017-12-01T03:09:55.588Z,89.10
2017-12-01T03:12:23.290Z,89.32
2017-12-01T03:14:53.289Z,89.13
2017-12-01T03:17:21.676Z,88.91
2017-12-01T03:19:50.246Z,88.97
2017-12-01T03:22:18.648Z,89.03
2017-12-01T03:24:47.636Z,89.39
2017-12-01T03:27:15.302Z,89.03
2017-12-01T03:29:44.864Z,89.23
2017-12-01T03:32:12.677Z,89.52
2017-12-01T03:34:42.126Z,89.46
2017-12-01T03:37:10.587Z,89.66
2017-12-01T03:39:38.257Z,89.89
2017-12-01T03:42:07.671Z,90.13
2017-12-01T03:44:37.220Z,90.07
2017-12-01T03:47:04.942Z,89.98
2017-12-01T03:49:34.612Z,89.87
2017-12-01T03:52:02.424Z,89.75
2017-12-01T03:54:30.112Z,89.92
2017-12-01T03:56:59.539Z,90.22
2017-12-01T03:59:27.252Z,90.35
2017-12-01T04:01:56.852Z,90.60
2017-12-01T04:04:24.550Z,90.68
2017-12-01T04:06:52.562Z,90.70
2017-12-01T04:09:20.241Z,90.81
2017-12-01T04:11:48.658Z,90.81
2017-12-01T04:14:16.300Z,90.76
2017-12-01T04:16:47.242Z,90.68
2017-12-01T04:19:15.663Z,90.59
2017-12-01T04:21:44.064Z,90.50
2017-12-01T04:24:14.086Z,90.52
2017-12-01T04:26:42.710Z,90.52
2017-12-01T04:29:12.784Z,90.68
2017-12-01T04:31:42.323Z,90.87
2017-12-01T04:34:10.068Z,90.88
2017-12-01T04:36:39.575Z,90.96
2017-12-01T04:39:07.405Z,90.95
2017-12-01T04:41:35.091Z,90.76
2017-12-01T04:44:02.765Z,91.09
2017-12-01T04:46:31.093Z,91.22
2017-12-01T04:48:58.786Z,91.19
2017-12-01T04:51:28.213Z,91.27
2017-12-01T04:53:57.659Z,91.50
2017-12-01T04:56:28.003Z,91.67
2017-12-01T04:58:57.939Z,91.74
2017-12-01T05:01:27.119Z,91.90
2017-12-01T05:03:56.612Z,92.06
2017-12-01T05:06:25.089Z,92.14
2017-12-01T05:08:54.518Z,92.02
2017-12-01T05:11:24.115Z,91.99
2017-12-01T05:13:54.471Z,92.10
2017-12-01T05:16:23.597Z,91.86
2017-12-01T05:18:53.071Z,91.87
2017-12-01T05:21:20.817Z,91.98
2017-12-01T05:23:50.657Z,92.31
2017-12-01T05:26:18.318Z,92.22
2017-12-01T05:28:47.569Z,92.28
2017-12-01T05:31:15.239Z,92.19
2017-12-01T05:33:42.943Z,92.14
2017-12-01T05:36:10.603Z,92.32
2017-12-01T05:38:40.098Z,92.25
2017-12-01T05:41:08.731Z,92.42
2017-12-01T05:43:39.136Z,92.46
2017-12-01T05:46:09.349Z,92.43
2017-12-01T05:48:38.912Z,92.47
2017-12-01T05:51:08.868Z,92.54
2017-12-01T05:53:36.688Z,92.61
2017-12-01T05:56:07.175Z,92.70
2017-12-01T05:58:39.533Z,92.97
2017-12-01T06:01:07.955Z,93.15
2017-12-01T06:03:35.645Z,93.08
2017-12-01T06:06:04.141Z,93.22
2017-12-01T06:08:32.825Z,93.19
2017-12-01T06:11:02.358Z,93.16
2017-12-01T06:13:31.059Z,93.06
2017-12-01T06:15:59.401Z,92.99
2017-12-01T06:18:29.165Z,93.20
2017-12-01T06:20:58.902Z,93.30
2017-12-01T06:23:28.536Z,93.36
2017-12-01T06:25:57.206Z,93.24
2017-12-01T06:28:24.859Z,93.16
2017-12-01T06:30:55.731Z,93.15
2017-12-01T06:33:24.199Z,93.04
2017-12-01T06:35:52.665Z,92.86
2017-12-01T06:38:21.354Z,92.80
2017-12-01T06:40:53.349Z,92.83
2017-12-01T06:43:21.283Z,92.91
2017-12-01T06:45:51.565Z,93.36
2017-12-01T06:48:19.295Z,93.34
2017-12-01T06:50:48.709Z,93.31
2017-12-01T06:53:18.329Z,93.08
2017-12-01T06:55:47.860Z,92.98
2017-12-01T06:58:15.788Z,93.01
2017-12-01T07:00:44.357Z,93.09
2017-12-01T07:03:12.838Z,93.09
2017-12-01T07:05:40.511Z,92.92
2017-12-01T07:08:08.232Z,92.74
2017-12-01T07:10:36.727Z,92.71
2017-12-01T07:13:06.191Z,92.74
2017-12-01T07:15:33.917Z,92.70
2017-12-01T07:18:01.662Z,92.75
2017-12-01T07:20:31.560Z,92.73
2017-12-01T07:22:59.364Z,92.92
2017-12-01T07:25:27.084Z,93.00
2017-12-01T07:27:54.781Z,92.92
2017-12-01T07:30:26.216Z,92.90
2017-12-01T07:32:53.938Z,92.71
2017-12-01T07:35:23.376Z,92.57
2017-12-01T07:37:52.993Z,92.46
2017-12-01T07:40:20.711Z,92.37
2017-12-01T07:42:48.416Z,92.36
2017-12-01T07:45:16.900Z,92.34
2017-12-01T07:47:47.248Z,92.21
2017-12-01T07:50:15.246Z,92.31
2017-12-01T07:52:43.084Z,92.28
2017-12-01T07:55:10.940Z,92.56
2017-12-01T07:57:41.226Z,92.71
2017-12-01T08:00:08.908Z,92.79
2017-12-01T08:02:36.634Z,92.71
2017-12-01T08:05:04.317Z,92.62
2017-12-01T08:07:34.488Z,92.53
2017-12-01T08:10:03.888Z,92.55
2017-12-01T08:12:32.358Z,92.62
2017-12-01T08:15:01.898Z,92.60
2017-12-01T08:17:31.181Z,92.62
2017-12-01T08:19:58.869Z,92.56
2017-12-01T08:22:40.221Z,92.53
2017-12-01T08:25:20.922Z,92.12
2017-12-01T08:27:48.672Z,92.20
2017-12-01T08:30:18.352Z,92.25
2017-12-01T08:32:47.696Z,92.29
2017-12-01T08:35:15.459Z,92.08
2017-12-01T08:37:43.105Z,91.98
2017-12-01T08:40:12.669Z,91.90
2017-12-01T08:42:43.024Z,91.90
2017-12-01T08:45:12.530Z,91.91
2017-12-01T08:47:42.104Z,91.69
2017-12-01T08:50:10.035Z,91.40
2017-12-01T08:52:39.334Z,91.28
2017-12-01T08:55:09.959Z,90.88
2017-12-01T08:57:39.341Z,90.57
2017-12-01T09:00:07.069Z,90.62
2017-12-01T09:02:35.636Z,90.24
2017-12-01T09:05:05.084Z,89.89
2017-12-01T09:07:35.453Z,89.90
2017-12-01T09:10:03.307Z,89.77
2017-12-01T09:12:32.576Z,89.56
2017-12-01T09:15:00.339Z,89.45
2017-12-01T09:17:28.072Z,89.51
2017-12-01T09:19:56.550Z,89.32
2017-12-01T09:22:24.327Z,89.17
2017-12-01T09:24:56.178Z,89.07
2017-12-01T09:27:25.502Z,88.47
2017-12-01T09:29:53.245Z,88.77
2017-12-01T09:32:22.820Z,88.89
2017-12-01T09:34:52.299Z,88.98
2017-12-01T09:37:20.844Z,89.06
2017-12-01T09:39:50.430Z,89.03
2017-12-01T09:42:20.785Z,89.05
2017-12-01T09:44:50.671Z,89.07
2017-12-01T09:47:18.345Z,89.08
2017-12-01T09:49:47.798Z,89.07
2017-12-01T09:52:17.236Z,89.02
2017-12-01T09:54:47.525Z,88.94
2017-12-01T09:57:17.967Z,88.88
2017-12-01T09:59:47.495Z,89.08
2017-12-01T10:02:15.993Z,89.00
2017-12-01T10:04:43.789Z,88.63
2017-12-01T10:07:11.681Z,88.92
2017-12-01T10:09:40.397Z,88.87
2017-12-01T10:12:08.189Z,88.56
2017-12-01T10:14:35.997Z,88.79
2017-12-01T10:17:04.675Z,88.53
2017-12-01T10:19:32.333Z,88.35
2017-12-01T10:22:01.769Z,87.85
2017-12-01T10:24:30.227Z,87.71
2017-12-01T10:26:57.981Z,87.46
2017-12-01T10:29:25.792Z,87.53
2017-12-01T10:31:59.160Z,87.66
2017-12-01T10:34:26.857Z,87.70
2017-12-01T10:36:56.410Z,87.65
2017-12-01T10:39:26.022Z,87.46
2017-12-01T10:41:53.821Z,87.61
2017-12-01T10:44:21.474Z,87.57
2017-12-01T10:46:50.903Z,87.09
2017-12-01T10:49:18.583Z,87.15
2017-12-01T10:51:47.039Z,86.91
2017-12-01T10:54:14.771Z,86.65
2017-12-01T10:56:42.460Z,86.87
2017-12-01T10:59:11.035Z,86.67
2017-12-01T11:01:39.526Z,85.95
2017-12-01T11:04:07.305Z,85.70
2017-12-01T11:06:35.079Z,85.89
2017-12-01T11:09:04.520Z,85.37
2017-12-01T11:11:33.956Z,85.44
2017-12-01T11:14:03.305Z,85.89
2017-12-01T11:16:32.872Z,85.57
2017-12-01T11:19:00.542Z,85.23
2017-12-01T11:21:30.251Z,84.98
2017-12-01T11:24:00.816Z,85.29
2017-12-01T11:26:30.173Z,85.62
2017-12-01T11:28:58.899Z,85.77
2017-12-01T11:31:26.591Z,85.58
2017-12-01T11:33:56.809Z,85.73
2017-12-01T11:36:25.261Z,85.73
2017-12-01T11:38:53.057Z,84.53
2017-12-01T11:41:22.479Z,84.77
2017-12-01T11:43:52.876Z,84.42
2017-12-01T11:46:23.251Z,84.36
2017-12-01T11:48:50.999Z,84.50
2017-12-01T11:51:21.337Z,84.49
2017-12-01T11:53:51.663Z,83.82
2017-12-01T11:56:19.456Z,84.41
2017-12-01T11:58:49.097Z,84.31
2017-12-01T12:01:18.533Z,84.16
2017-12-01T12:03:47.970Z,82.92
2017-12-01T12:06:15.768Z,82.41
2017-12-01T12:08:45.611Z,81.91
2017-12-01T12:11:15.933Z,82.59
2017-12-01T12:13:43.660Z,81.58
2017-12-01T12:16:13.543Z,81.74
2017-12-01T12:18:42.855Z,81.77
2017-12-01T12:21:10.571Z,81.25
2017-12-01T12:23:40.622Z,80.69
2017-12-01T12:26:08.506Z,81.50
2017-12-01T12:28:37.944Z,81.14
2017-12-01T12:31:06.673Z,80.62
2017-12-01T12:33:34.454Z,79.79
2017-12-01T12:36:04.926Z,79.55
2017-12-01T12:38:33.555Z,78.92
2017-12-01T12:41:01.534Z,78.31
2017-12-01T12:43:29.216Z,79.18
2017-12-01T12:45:59.152Z,78.89
2017-12-01T12:48:26.824Z,79.20
2017-12-01T12:50:54.526Z,76.89
2017-12-01T12:53:22.450Z,78.28
2017-12-01T12:55:50.155Z,77.01
2017-12-01T12:58:17.873Z,76.11
2017-12-01T13:00:45.644Z,76.80
2017-12-01T13:03:15.575Z,77.46
2017-12-01T13:05:45.475Z,78.03
2017-12-01T13:08:16.965Z,77.84
2017-12-01T13:10:46.526Z,77.70
2017-12-01T13:13:17.001Z,78.03
2017-12-01T13:15:46.608Z,78.69
2017-12-01T13:18:15.905Z,78.65
2017-12-01T13:20:47.558Z,78.37
2017-12-01T13:23:17.084Z,78.54
2017-12-01T13:25:46.674Z,78.24
2017-12-01T13:28:15.357Z,77.99
2017-12-01T13:30:44.208Z,77.37
2017-12-01T13:33:11.901Z,77.61
2017-12-01T13:35:40.364Z,77.80
2017-12-01T13:38:08.049Z,78.05
2017-12-01T13:40:37.552Z,78.21
2017-12-01T13:43:06.049Z,77.85
2017-12-01T13:45:35.414Z,78.16
2017-12-01T13:48:03.179Z,78.43
2017-12-01T13:50:31.629Z,78.55
2017-12-01T13:52:59.472Z,77.92
2017-12-01T13:55:27.147Z,77.58
2017-12-01T13:57:55.076Z,77.77
2017-12-01T14:00:22.808Z,77.72
2017-12-01T14:02:51.239Z,77.83
2017-12-01T14:05:18.924Z,78.49
2017-12-01T14:07:46.582Z,78.60
2017-12-01T14:10:16.130Z,78.56
2017-12-01T14:12:44.696Z,78.53
2017-12-01T14:15:14.107Z,78.26
2017-12-01T14:17:44.480Z,78.35
2017-12-01T14:20:12.199Z,78.70
2017-12-01T14:22:39.958Z,78.99
2017-12-01T14:25:07.762Z,78.97
2017-12-01T14:27:35.524Z,79.17
2017-12-01T14:30:04.984Z,79.20
2017-12-01T14:32:35.037Z,79.42
2017-12-01T14:35:04.940Z,79.73
2017-12-01T14:37:34.635Z,79.76
2017-12-01T14:40:02.668Z,79.53
2017-12-01T14:42:30.482Z,79.94
2017-12-01T14:44:58.182Z,80.78
2017-12-01T14:47:27.583Z,81.18
2017-12-01T14:49:56.124Z,81.51
2017-12-01T14:52:23.881Z,81.74
2017-12-01T14:54:53.194Z,82.01
2017-12-01T14:57:20.989Z,82.38
2017-12-01T14:59:48.747Z,82.66
2017-12-01T15:02:18.785Z,82.90
2017-12-01T15:04:47.585Z,83.17
2017-12-01T15:07:17.392Z,83.09
2017-12-01T15:09:47.683Z,83.29
2017-12-01T15:12:17.263Z,83.52
2017-12-01T15:14:45.077Z,83.65
2017-12-01T15:17:15.600Z,83.85
2017-12-01T15:19:43.318Z,84.38
2017-12-01T15:22:13.679Z,84.85
2017-12-01T15:24:44.018Z,85.29
2017-12-01T15:27:11.753Z,85.52
2017-12-01T15:29:39.589Z,85.79
2017-12-01T15:32:07.276Z,85.91
2017-12-01T15:34:35.030Z,86.11
2017-12-01T15:37:05.334Z,86.24
2017-12-01T15:39:35.262Z,86.54
2017-12-01T15:42:02.939Z,86.71
2017-12-01T15:44:30.660Z,87.03
2017-12-01T15:47:00.928Z,87.35
2017-12-01T15:49:29.411Z,87.69
2017-12-01T15:51:57.080Z,88.00
2017-12-01T15:54:28.584Z,88.08
2017-12-01T15:56:58.141Z,88.28
2017-12-01T15:59:25.902Z,88.39
2017-12-01T16:01:54.300Z,88.64
2017-12-01T16:04:22.029Z,88.64
2017-12-01T16:06:49.706Z,88.68
2017-12-01T16:09:18.171Z,88.79
2017-12-01T16:11:48.490Z,88.79
2017-12-01T16:14:18.930Z,88.82
2017-12-01T16:16:47.504Z,88.88
2017-12-01T16:19:15.292Z,88.90
2017-12-01T16:21:45.371Z,89.01
2017-12-01T16:24:14.678Z,89.14
2017-12-01T16:26:42.580Z,89.32
2017-12-01T16:29:10.315Z,89.43
2017-12-01T16:31:39.648Z,89.53
2017-12-01T16:34:07.396Z,89.67
2017-12-01T16:36:37.005Z,89.71
2017-12-01T16:39:07.651Z,89.73
2017-12-01T16:41:35.350Z,89.90
2017-12-01T16:44:04.838Z,89.91
2017-12-01T16:46:34.363Z,90.06
2017-12-01T16:49:03.920Z,90.02
2017-12-01T16:51:33.447Z,89.97
2017-12-01T16:54:01.385Z,90.17
2017-12-01T16:56:29.259Z,90.11
2017-12-01T16:58:57.703Z,90.10
2017-12-01T17:01:27.158Z,90.12
2017-12-01T17:03:54.953Z,90.17
2017-12-01T17:06:22.707Z,90.26
2017-12-01T17:08:54.286Z,90.39
2017-12-01T17:11:22.827Z,90.38
2017-12-01T17:13:51.296Z,90.38
2017-12-01T17:16:19.942Z,90.47
2017-12-01T17:18:50.335Z,90.56
2017-12-01T17:21:20.076Z,90.61
2017-12-01T17:23:48.114Z,90.71
2017-12-01T17:26:15.853Z,91.04
2017-12-01T17:28:45.152Z,91.19
2017-12-01T17:31:14.565Z,91.11
2017-12-01T17:33:44.059Z,91.03
2017-12-01T17:36:12.634Z,91.10
2017-12-01T17:38:40.353Z,91.37
2017-12-01T17:41:10.092Z,91.27
2017-12-01T17:43:37.922Z,91.20
2017-12-01T17:46:06.412Z,91.32
2017-12-01T17:48:35.805Z,91.39
2017-12-01T17:51:05.959Z,91.46
2017-12-01T17:53:35.454Z,91.42
2017-12-01T17:56:03.194Z,91.48
2017-12-01T17:58:30.886Z,91.76
2017-12-01T18:00:59.362Z,91.86
2017-12-01T18:03:27.073Z,92.08
2017-12-01T18:05:56.484Z,92.14
2017-12-01T18:08:25.158Z,92.25
2017-12-01T18:10:52.908Z,91.96
2017-12-01T18:13:20.887Z,91.90
2017-12-01T18:15:48.669Z,91.78
2017-12-01T18:18:18.246Z,91.67
2017-12-01T18:20:48.537Z,91.65
2017-12-01T18:23:17.223Z,91.79
2017-12-01T18:25:44.922Z,91.68
2017-12-01T18:28:15.541Z,91.77
2017-12-01T18:30:45.073Z,91.79
2017-12-01T18:33:13.083Z,91.83
2017-12-01T18:35:40.865Z,91.67
2017-12-01T18:38:10.283Z,91.53
2017-12-01T18:40:40.889Z,91.55
2017-12-01T18:43:11.401Z,91.72
2017-12-01T18:45:41.687Z,91.78
2017-12-01T18:48:09.398Z,91.90
2017-12-01T18:50:37.157Z,92.12
2017-12-01T18:53:06.860Z,92.34
2017-12-01T18:55:37.505Z,92.24
2017-12-01T18:58:05.287Z,92.09
2017-12-01T19:00:33.975Z,92.06
2017-12-01T19:03:02.439Z,91.97
2017-12-01T19:05:30.355Z,91.95
2017-12-01T19:08:00.999Z,91.83
2017-12-01T19:10:30.298Z,91.69
2017-12-01T19:12:58.171Z,91.62
2017-12-01T19:15:25.882Z,91.70
2017-12-01T19:17:54.394Z,91.88
2017-12-01T19:20:24.596Z,92.19
2017-12-01T19:22:53.232Z,92.33
2017-12-01T19:25:20.915Z,92.50
2017-12-01T19:27:51.353Z,92.66
2017-12-01T19:30:19.325Z,92.80
2017-12-01T19:32:47.800Z,92.96
2017-12-01T19:35:15.645Z,93.14
2017-12-01T19:37:43.529Z,93.39
2017-12-01T19:40:13.064Z,93.65
2017-12-01T19:42:40.892Z,93.87
2017-12-01T19:45:08.671Z,93.97
2017-12-01T19:47:36.453Z,94.07
2017-12-01T19:50:04.284Z,94.19
2017-12-01T19:52:33.771Z,94.21
2017-12-01T19:55:01.628Z,94.20
2017-12-01T19:57:29.449Z,94.17
2017-12-01T19:59:57.339Z,94.18
2017-12-01T20:02:25.407Z,94.17
2017-12-01T20:04:53.200Z,94.21
2017-12-01T20:07:21.096Z,94.25
2017-12-01T20:09:50.655Z,94.23
2017-12-01T20:12:19.269Z,94.26
2017-12-01T20:14:48.779Z,94.23
2017-12-01T20:17:18.265Z,94.27
2017-12-01T20:19:46.251Z,94.22
2017-12-01T20:22:14.019Z,94.26
2017-12-01T20:24:41.880Z,94.33
2017-12-01T20:27:10.051Z,94.38
2017-12-01T20:29:38.034Z,94.15
2017-12-01T20:32:06.742Z,94.22
2017-12-01T20:34:34.866Z,94.15
2017-12-01T20:37:04.528Z,94.03
2017-12-01T20:39:32.543Z,93.95
2017-12-01T20:42:01.406Z,93.88
2017-12-01T20:44:29.337Z,93.74
2017-12-01T20:46:57.284Z,93.85
2017-12-01T20:49:26.212Z,93.73
2017-12-01T20:51:54.871Z,93.60
2017-12-01T20:54:25.521Z,93.46
2017-12-01T20:56:53.390Z,93.34
2017-12-01T20:59:21.292Z,93.35
2017-12-01T21:01:51.522Z,93.33
2017-12-01T21:04:19.603Z,93.25
2017-12-01T21:06:48.615Z,93.08
2017-12-01T21:09:16.548Z,92.92
2017-12-01T21:11:44.405Z,92.81
2017-12-01T21:14:13.307Z,92.72
2017-12-01T21:16:41.185Z,92.61
2017-12-01T21:19:08.978Z,92.57
2017-12-01T21:21:36.739Z,92.47
2017-12-01T21:24:06.497Z,92.49
2017-12-01T21:26:34.502Z,92.30
2017-12-01T21:29:02.469Z,92.02
2017-12-01T21:31:30.412Z,92.08
2017-12-01T21:34:00.493Z,92.12
2017-12-01T21:36:30.816Z,92.33
2017-12-01T21:38:59.419Z,92.29
2017-12-01T21:41:28.093Z,92.27
2017-12-01T21:43:55.905Z,92.13
2017-12-01T21:46:23.771Z,92.03
2017-12-01T21:48:51.498Z,92.02
2017-12-01T21:51:19.982Z,92.17
2017-12-01T21:53:49.404Z,92.26
2017-12-01T21:56:19.777Z,92.09
2017-12-01T21:58:47.580Z,91.98
2017-12-01T22:01:16.126Z,91.93
2017-12-01T22:03:45.045Z,91.99
2017-12-01T22:06:13.029Z,91.96
2017-12-01T22:08:41.076Z,91.91
2017-12-01T22:11:08.991Z,91.74
2017-12-01T22:13:37.478Z,92.06
2017-12-01T22:16:05.196Z,92.25
2017-12-01T22:18:32.929Z,92.37
2017-12-01T22:21:00.613Z,92.50
2017-12-01T22:23:28.392Z,92.43
2017-12-01T22:25:56.290Z,92.45
2017-12-01T22:28:24.218Z,92.38
2017-12-01T22:30:51.906Z,92.27
2017-12-01T22:33:21.500Z,92.22
2017-12-01T22:35:51.945Z,92.30
2017-12-01T22:38:22.272Z,92.13
2017-12-01T22:40:50.031Z,92.20
2017-12-01T22:43:17.995Z,92.12
2017-12-01T22:45:45.875Z,92.33
2017-12-01T22:48:15.325Z,92.18
2017-12-01T22:50:43.175Z,92.40
2017-12-01T22:53:12.750Z,92.62
2017-12-01T22:55:40.540Z,92.88
2017-12-01T22:58:08.308Z,92.94
2017-12-01T23:00:36.173Z,92.85
2017-12-01T23:03:04.989Z,92.95
2017-12-01T23:05:32.797Z,93.27
2017-12-01T23:08:00.551Z,93.18
2017-12-01T23:10:28.441Z,93.19
2017-12-01T23:12:59.065Z,93.14
2017-12-01T23:15:26.960Z,93.26
2017-12-01T23:17:54.717Z,93.27
2017-12-01T23:20:23.358Z,93.23
2017-12-01T23:22:52.678Z,93.20
2017-12-01T23:25:20.611Z,93.11
2017-12-01T23:27:51.861Z,93.13
2017-12-01T23:30:19.916Z,92.83
2017-12-01T23:32:47.708Z,92.78
2017-12-01T23:35:15.554Z,92.63
2017-12-01T23:37:43.322Z,92.66
2017-12-01T23:40:12.767Z,92.69
2017-12-01T23:42:40.620Z,92.54
2017-12-01T23:45:10.164Z,92.27
2017-12-01T23:47:38.074Z,92.32
2017-12-01T23:50:06.208Z,92.22
2017-12-01T23:52:34.156Z,92.15
2017-12-01T23:55:02.728Z,92.22
2017-12-01T23:57:33.194Z,92.09
